createdAt,value
2018-04-23T00:01:17.210Z,16.30
2018-04-23T00:03:44.712Z,16.30
2018-04-23T00:06:12.243Z,16.30
2018-04-23T00:08:39.761Z,16.30
2018-04-23T00:11:07.317Z,16.30
2018-04-23T00:13:34.847Z,16.20
2018-04-23T00:16:02.369Z,16.20
2018-04-23T00:20:52.171Z,16.10
2018-04-23T00:23:19.699Z,16.00
2018-04-23T00:25:47.199Z,16.00
2018-04-23T00:28:15.483Z,16.00
2018-04-23T00:30:43.793Z,16.00
2018-04-23T00:33:11.304Z,15.90
2018-04-23T00:35:38.835Z,16.00
2018-04-23T00:38:06.340Z,16.00
2018-04-23T00:40:35.382Z,15.90
2018-04-23T00:43:02.890Z,15.90
2018-04-23T00:45:30.416Z,15.90
2018-04-23T00:47:57.942Z,15.90
2018-04-23T00:50:25.458Z,15.90
2018-04-23T00:53:04.863Z,16.00
2018-04-23T00:55:33.137Z,16.00
2018-04-23T00:58:01.436Z,16.00
2018-04-23T01:00:28.953Z,15.90
2018-04-23T01:02:56.499Z,16.10
2018-04-23T01:05:24.024Z,16.10
2018-04-23T01:07:51.537Z,16.10
2018-04-23T01:10:19.051Z,16.00
2018-04-23T01:12:46.584Z,16.00
2018-04-23T01:15:14.863Z,15.90
2018-04-23T01:17:43.149Z,15.90
2018-04-23T01:20:10.643Z,15.90
2018-04-23T01:22:38.155Z,15.80
2018-04-23T01:25:05.651Z,15.80
2018-04-23T01:27:33.921Z,15.70
2018-04-23T01:30:02.212Z,15.70
2018-04-23T01:32:30.495Z,15.70
2018-04-23T01:34:58.799Z,15.60
2018-04-23T01:37:26.296Z,15.60
2018-04-23T01:39:54.619Z,15.60
2018-04-23T01:42:22.896Z,15.60
2018-04-23T01:44:51.170Z,15.50
2018-04-23T01:47:19.454Z,15.50
2018-04-23T01:49:47.764Z,15.50
2018-04-23T01:52:15.286Z,15.50
2018-04-23T01:54:42.794Z,15.60
2018-04-23T01:57:11.180Z,15.60
2018-04-23T01:59:38.678Z,15.50
2018-04-23T02:02:06.206Z,15.50
2018-04-23T02:04:33.708Z,15.40
2018-04-23T02:07:01.224Z,15.40
2018-04-23T02:09:28.752Z,15.40
2018-04-23T02:11:57.074Z,15.30
2018-04-23T02:14:24.591Z,15.30
2018-04-23T02:16:52.103Z,15.40
2018-04-23T02:19:19.642Z,15.30
2018-04-23T02:21:47.931Z,15.20
2018-04-23T02:24:16.208Z,15.20
2018-04-23T02:26:44.503Z,15.30
2018-04-23T02:29:12.007Z,15.20
2018-04-23T02:31:39.543Z,15.20
2018-04-23T02:34:07.056Z,15.10
2018-04-23T02:36:34.595Z,15.10
2018-04-23T02:39:02.099Z,15.00
2018-04-23T02:41:30.369Z,15.00
2018-04-23T02:43:57.898Z,15.00
2018-04-23T02:46:25.408Z,15.00
2018-04-23T02:48:53.706Z,15.00
2018-04-23T02:51:21.211Z,15.00
2018-04-23T02:53:48.733Z,15.00
2018-04-23T02:56:16.254Z,15.00
2018-04-23T02:58:43.788Z,15.00
2018-04-23T03:01:11.306Z,15.00
2018-04-23T03:03:39.584Z,15.10
2018-04-23T03:06:07.114Z,15.10
2018-04-23T03:08:34.608Z,15.10
2018-04-23T03:11:02.129Z,15.20
2018-04-23T03:13:29.651Z,15.20
2018-04-23T03:15:57.939Z,15.30
2018-04-23T03:18:25.460Z,15.30
2018-04-23T03:20:52.975Z,15.30
2018-04-23T03:23:20.571Z,15.30
2018-04-23T03:25:48.091Z,15.30
2018-04-23T03:28:16.383Z,15.10
2018-04-23T03:30:43.907Z,15.10
2018-04-23T03:33:11.438Z,15.10
2018-04-23T03:35:38.959Z,15.10
2018-04-23T03:38:07.366Z,15.00
2018-04-23T03:40:34.880Z,15.00
2018-04-23T03:43:02.389Z,15.00
2018-04-23T03:45:29.909Z,15.00
2018-04-23T03:47:57.413Z,15.00
2018-04-23T03:50:24.985Z,14.90
2018-04-23T03:52:53.272Z,14.90
2018-04-23T03:55:20.804Z,14.90
2018-04-23T03:57:49.089Z,14.80
2018-04-23T04:00:17.404Z,14.80
2018-04-23T04:02:44.918Z,14.70
2018-04-23T04:05:12.416Z,14.70
2018-04-23T04:07:40.020Z,14.70
2018-04-23T04:10:07.544Z,14.70
2018-04-23T04:12:47.038Z,14.60
2018-04-23T04:15:26.429Z,14.60
2018-04-23T04:21:05.100Z,14.60
2018-04-23T04:23:32.650Z,14.60
2018-04-23T04:26:00.169Z,14.60
2018-04-23T04:28:27.688Z,14.60
2018-04-23T04:30:55.216Z,14.60
2018-04-23T04:33:22.723Z,14.60
2018-04-23T04:35:51.037Z,14.60
2018-04-23T04:38:18.568Z,14.60
2018-04-23T04:40:46.875Z,14.70
2018-04-23T04:43:14.396Z,14.60
2018-04-23T04:45:41.917Z,14.70
2018-04-23T04:48:09.450Z,14.70
2018-04-23T04:50:37.715Z,14.80
2018-04-23T04:53:05.358Z,14.80
2018-04-23T04:55:32.870Z,14.80
2018-04-23T04:58:01.144Z,14.90
2018-04-23T05:00:29.429Z,14.90
2018-04-23T05:02:57.736Z,15.00
2018-04-23T05:05:25.255Z,15.00
2018-04-23T05:07:52.780Z,15.00
2018-04-23T05:10:20.312Z,15.10
2018-04-23T05:12:47.838Z,15.20
2018-04-23T05:15:15.377Z,15.30
2018-04-23T05:17:42.911Z,15.30
2018-04-23T05:20:10.432Z,15.40
2018-04-23T05:22:37.968Z,15.50
2018-04-23T05:25:05.491Z,15.60
2018-04-23T05:27:33.031Z,15.70
2018-04-23T05:30:01.414Z,15.80
2018-04-23T05:32:28.881Z,15.80
2018-04-23T05:34:56.444Z,15.80
2018-04-23T05:37:23.972Z,15.90
2018-04-23T05:39:51.483Z,15.90
2018-04-23T05:42:19.765Z,16.00
2018-04-23T05:44:48.065Z,16.10
2018-04-23T05:47:15.595Z,16.10
2018-04-23T05:49:43.913Z,16.30
2018-04-23T05:52:11.438Z,16.30
2018-04-23T05:54:38.957Z,16.50
2018-04-23T05:57:06.467Z,16.50
2018-04-23T05:59:33.997Z,16.60
2018-04-23T06:02:01.532Z,16.70
2018-04-23T06:04:29.067Z,16.80
2018-04-23T06:06:57.392Z,17.00
2018-04-23T06:09:24.907Z,17.00
2018-04-23T06:11:53.195Z,17.30
2018-04-23T06:14:21.524Z,17.40
2018-04-23T06:16:49.017Z,17.40
2018-04-23T06:19:16.525Z,17.50
2018-04-23T06:21:44.048Z,17.60
2018-04-23T06:24:11.553Z,17.80
2018-04-23T06:26:39.070Z,17.90
2018-04-23T06:29:06.577Z,18.10
2018-04-23T06:31:34.089Z,18.20
2018-04-23T06:34:01.606Z,18.40
2018-04-23T06:36:29.123Z,18.50
2018-04-23T06:38:58.151Z,18.60
2018-04-23T06:41:26.449Z,18.70
2018-04-23T06:43:53.970Z,18.70
2018-04-23T06:46:21.512Z,18.80
2018-04-23T06:48:49.059Z,18.80
2018-04-23T06:51:16.677Z,18.80
2018-04-23T06:53:44.952Z,18.90
2018-04-23T06:56:17.891Z,18.90
2018-04-23T06:58:46.244Z,19.00
2018-04-23T07:01:14.547Z,19.00
2018-04-23T07:03:42.077Z,19.00
2018-04-23T07:06:10.382Z,18.90
2018-04-23T07:08:37.903Z,18.90
2018-04-23T07:11:05.444Z,19.00
2018-04-23T07:13:32.954Z,19.20
2018-04-23T07:16:01.236Z,19.50
2018-04-23T07:18:29.524Z,19.80
2018-04-23T07:20:57.041Z,19.80
2018-04-23T07:23:24.575Z,19.90
2018-04-23T07:25:52.075Z,20.10
2018-04-23T07:28:19.602Z,20.20
2018-04-23T07:30:47.155Z,20.40
2018-04-23T07:33:14.671Z,20.70
2018-04-23T07:35:42.190Z,20.80
2018-04-23T07:38:09.704Z,21.10
2018-04-23T07:40:37.244Z,21.40
2018-04-23T07:43:04.772Z,21.60
2018-04-23T07:45:32.324Z,21.90
2018-04-23T07:48:00.611Z,22.10
2018-04-23T07:50:28.881Z,22.30
2018-04-23T07:52:57.166Z,22.60
2018-04-23T07:55:25.451Z,22.80
2018-04-23T07:57:53.761Z,22.90
2018-04-23T08:00:21.273Z,22.80
2018-04-23T08:02:48.822Z,23.10
2018-04-23T08:05:16.338Z,23.30
2018-04-23T08:07:43.856Z,23.50
2018-04-23T08:10:11.415Z,23.50
2018-04-23T08:12:38.925Z,23.00
2018-04-23T08:15:06.445Z,23.00
2018-04-23T08:17:33.984Z,22.90
2018-04-23T08:20:01.501Z,23.00
2018-04-23T08:22:30.258Z,23.70
2018-04-23T08:24:57.767Z,23.60
2018-04-23T08:27:25.298Z,23.70
2018-04-23T08:29:52.811Z,23.90
2018-04-23T08:32:20.340Z,23.90
2018-04-23T08:34:48.648Z,24.20
2018-04-23T08:37:16.158Z,24.10
2018-04-23T08:39:43.695Z,24.50
2018-04-23T08:42:11.203Z,24.80
2018-04-23T08:44:38.721Z,24.90
2018-04-23T08:47:06.279Z,24.70
2018-04-23T08:49:33.791Z,24.50
2018-04-23T08:52:01.299Z,24.50
2018-04-23T08:54:28.829Z,24.60
2018-04-23T08:56:57.129Z,24.70
2018-04-23T08:59:24.637Z,24.70
2018-04-23T09:01:52.166Z,24.60
2018-04-23T09:04:19.672Z,24.80
2018-04-23T09:06:47.209Z,25.10
2018-04-23T09:09:14.721Z,25.30
2018-04-23T09:11:43.080Z,25.50
2018-04-23T09:14:10.549Z,25.50
2018-04-23T09:16:38.071Z,25.20
2018-04-23T09:19:05.593Z,25.20
2018-04-23T09:21:33.863Z,25.40
2018-04-23T09:24:01.385Z,25.40
2018-04-23T09:26:28.900Z,25.50
2018-04-23T09:28:56.432Z,25.70
2018-04-23T09:31:23.951Z,25.90
2018-04-23T09:33:51.456Z,25.90
2018-04-23T09:36:18.974Z,26.00
2018-04-23T09:38:47.253Z,26.00
2018-04-23T09:41:15.552Z,26.30
2018-04-23T09:43:43.047Z,26.40
2018-04-23T09:46:10.587Z,26.70
2018-04-23T09:48:38.100Z,26.20
2018-04-23T09:51:05.604Z,25.90
2018-04-23T09:53:33.131Z,26.20
2018-04-23T09:56:00.645Z,26.10
2018-04-23T09:58:28.180Z,26.10
2018-04-23T10:00:56.445Z,25.80
2018-04-23T10:03:25.561Z,25.70
2018-04-23T10:05:53.875Z,26.20
2018-04-23T10:08:21.380Z,26.20
2018-04-23T10:10:48.936Z,26.50
2018-04-23T10:13:16.443Z,27.00
2018-04-23T10:15:43.988Z,27.30
2018-04-23T10:18:12.259Z,27.00
2018-04-23T10:20:40.563Z,27.30
2018-04-23T10:23:08.070Z,27.30
2018-04-23T10:25:35.603Z,27.50
2018-04-23T10:28:03.135Z,27.80
2018-04-23T10:30:31.425Z,27.70
2018-04-23T10:32:59.740Z,27.80
2018-04-23T10:35:27.263Z,27.80
2018-04-23T10:37:55.555Z,27.30
2018-04-23T10:40:23.838Z,27.30
2018-04-23T10:42:52.115Z,27.30
2018-04-23T10:45:20.416Z,27.40
2018-04-23T10:47:47.927Z,27.40
2018-04-23T10:50:15.460Z,27.60
2018-04-23T10:52:43.024Z,27.50
2018-04-23T10:55:10.563Z,27.50
2018-04-23T10:57:38.071Z,27.50
2018-04-23T11:00:05.587Z,27.50
2018-04-23T11:02:33.875Z,27.00
2018-04-23T11:05:01.388Z,27.00
2018-04-23T11:07:28.921Z,27.50
2018-04-23T11:09:56.462Z,27.20
2018-04-23T11:12:24.009Z,27.10
2018-04-23T11:14:52.278Z,27.40
2018-04-23T11:17:20.557Z,27.60
2018-04-23T11:19:48.855Z,27.80
2018-04-23T11:22:17.139Z,28.00
2018-04-23T11:24:45.504Z,28.20
2018-04-23T11:27:12.991Z,28.20
2018-04-23T11:29:40.508Z,28.40
2018-04-23T11:32:08.047Z,27.50
2018-04-23T11:34:35.567Z,27.70
2018-04-23T11:37:03.865Z,28.30
2018-04-23T11:39:31.384Z,28.40
2018-04-23T11:41:59.007Z,28.30
2018-04-23T11:44:26.525Z,27.20
2018-04-23T11:46:54.043Z,26.90
2018-04-23T11:49:21.558Z,27.00
2018-04-23T11:51:49.869Z,26.40
2018-04-23T11:54:17.392Z,26.40
2018-04-23T11:56:44.920Z,26.20
2018-04-23T11:59:12.458Z,26.10
2018-04-23T12:01:39.984Z,25.90
2018-04-23T12:04:07.508Z,25.80
2018-04-23T12:06:35.045Z,25.80
2018-04-23T12:09:03.338Z,25.70
2018-04-23T12:11:30.872Z,25.70
2018-04-23T12:13:59.137Z,25.80
2018-04-23T12:16:26.670Z,25.80
2018-04-23T12:18:54.182Z,25.80
2018-04-23T12:21:22.469Z,25.30
2018-04-23T12:23:50.756Z,24.70
2018-04-23T12:26:19.023Z,24.30
2018-04-23T12:28:47.319Z,24.00
2018-04-23T12:31:15.604Z,23.60
2018-04-23T12:33:43.121Z,23.50
2018-04-23T12:36:10.648Z,23.20
2018-04-23T12:38:38.160Z,22.60
2018-04-23T12:41:05.697Z,22.10
2018-04-23T12:43:33.215Z,21.30
2018-04-23T12:46:01.542Z,20.90
2018-04-23T12:48:29.057Z,20.90
2018-04-23T12:50:57.366Z,21.00
2018-04-23T12:53:24.899Z,20.90
2018-04-23T12:55:53.173Z,21.20
2018-04-23T12:58:20.696Z,21.20
2018-04-23T13:00:48.212Z,21.00
2018-04-23T13:03:16.519Z,21.30
2018-04-23T13:05:44.036Z,21.20
2018-04-23T13:08:11.560Z,21.40
2018-04-23T13:10:39.852Z,21.80
2018-04-23T13:13:07.381Z,21.80
2018-04-23T13:15:34.914Z,21.80
2018-04-23T13:18:02.427Z,22.00
2018-04-23T13:20:29.961Z,22.20
2018-04-23T13:22:58.236Z,21.90
2018-04-23T13:25:26.534Z,22.30
2018-04-23T13:27:54.065Z,22.30
2018-04-23T13:30:21.582Z,22.40
2018-04-23T13:32:49.100Z,22.50
2018-04-23T13:35:16.659Z,22.50
2018-04-23T13:37:44.210Z,22.60
2018-04-23T13:40:12.469Z,23.10
2018-04-23T13:42:40.040Z,23.10
2018-04-23T13:45:07.537Z,23.50
2018-04-23T13:47:35.095Z,23.70
2018-04-23T13:50:02.614Z,23.70
2018-04-23T13:52:30.129Z,23.50
2018-04-23T13:54:57.660Z,23.60
2018-04-23T13:57:25.181Z,23.80
2018-04-23T13:59:52.707Z,23.90
2018-04-23T14:02:20.219Z,23.90
2018-04-23T14:04:47.757Z,23.90
2018-04-23T14:07:16.052Z,23.60
2018-04-23T14:09:43.570Z,23.60
2018-04-23T14:12:11.127Z,23.60
2018-04-23T14:14:38.676Z,23.60
2018-04-23T14:17:06.183Z,23.60
2018-04-23T14:19:34.460Z,23.90
2018-04-23T14:22:01.997Z,23.90
2018-04-23T14:24:29.515Z,24.00
2018-04-23T14:26:57.783Z,23.90
2018-04-23T14:29:26.093Z,23.90
2018-04-23T14:31:53.608Z,23.90
2018-04-23T14:34:21.139Z,23.90
2018-04-23T14:36:48.669Z,23.90
2018-04-23T14:39:16.193Z,23.90
2018-04-23T14:41:43.707Z,23.80
2018-04-23T14:44:11.245Z,23.90
2018-04-23T14:46:39.517Z,24.40
2018-04-23T14:49:07.021Z,24.30
2018-04-23T14:51:34.555Z,24.40
2018-04-23T14:54:02.831Z,24.50
2018-04-23T14:56:31.134Z,24.60
2018-04-23T14:58:58.623Z,24.60
2018-04-23T15:01:26.186Z,24.40
2018-04-23T15:03:53.724Z,24.40
2018-04-23T15:06:21.270Z,24.40
2018-04-23T15:08:49.591Z,24.50
2018-04-23T15:11:17.112Z,24.40
2018-04-23T15:13:45.415Z,24.30
2018-04-23T15:16:12.926Z,24.20
2018-04-23T15:18:40.446Z,24.20
2018-04-23T15:21:07.979Z,24.30
2018-04-23T15:23:36.270Z,24.30
2018-04-23T15:26:04.589Z,24.30
2018-04-23T15:28:32.111Z,24.20
2018-04-23T15:31:00.385Z,23.60
2018-04-23T15:33:28.689Z,23.10
2018-04-23T15:35:56.256Z,23.00
2018-04-23T15:38:24.528Z,22.60
2018-04-23T15:40:52.815Z,22.50
2018-04-23T15:43:20.344Z,22.50
2018-04-23T15:45:47.891Z,22.40
2018-04-23T15:48:15.402Z,22.30
2018-04-23T15:50:42.947Z,22.30
2018-04-23T15:53:11.249Z,22.20
2018-04-23T15:55:39.542Z,22.20
2018-04-23T15:58:07.075Z,22.20
2018-04-23T16:00:35.354Z,22.20
2018-04-23T16:03:02.902Z,22.20
2018-04-23T16:05:30.426Z,22.20
2018-04-23T16:07:57.945Z,22.20
2018-04-23T16:10:25.506Z,22.10
2018-04-23T16:12:53.039Z,22.10
2018-04-23T16:15:20.643Z,21.90
2018-04-23T16:17:48.932Z,21.60
2018-04-23T16:20:17.205Z,21.40
2018-04-23T16:22:45.496Z,21.20
2018-04-23T16:25:13.785Z,21.10
2018-04-23T16:27:41.319Z,21.00
2018-04-23T16:30:08.936Z,21.10
2018-04-23T16:32:37.216Z,20.90
2018-04-23T16:35:04.786Z,20.90
2018-04-23T16:37:32.311Z,20.80
2018-04-23T16:40:00.646Z,20.60
2018-04-23T16:42:28.145Z,20.60
2018-04-23T16:44:55.691Z,20.50
2018-04-23T16:47:23.202Z,20.30
2018-04-23T16:49:50.758Z,20.20
2018-04-23T16:52:19.049Z,20.00
2018-04-23T16:54:46.712Z,20.00
2018-04-23T16:57:15.003Z,19.80
2018-04-23T16:59:42.572Z,19.80
2018-04-23T17:02:10.149Z,19.70
2018-04-23T17:04:37.705Z,19.60
2018-04-23T17:07:05.254Z,19.60
2018-04-23T17:09:32.765Z,19.50
2018-04-23T17:12:00.301Z,19.50
2018-04-23T17:14:27.808Z,19.40
2018-04-23T17:16:55.408Z,19.30
2018-04-23T17:19:22.930Z,19.20
2018-04-23T17:21:50.461Z,19.00
2018-04-23T17:24:17.984Z,18.90
2018-04-23T17:26:46.272Z,18.90
2018-04-23T17:29:14.593Z,18.80
2018-04-23T17:31:42.156Z,18.70
2018-04-23T17:34:09.729Z,18.70
2018-04-23T17:36:37.325Z,18.70
2018-04-23T17:39:05.738Z,18.50
2018-04-23T17:41:33.329Z,18.10
2018-04-23T17:44:01.471Z,17.90
2018-04-23T17:46:30.308Z,17.20
2018-04-23T17:48:57.885Z,17.30
2018-04-23T17:51:25.424Z,17.10
2018-04-23T17:53:53.000Z,17.20
2018-04-23T17:56:20.577Z,17.30
2018-04-23T17:58:48.225Z,17.40
2018-04-23T18:01:15.753Z,17.50
2018-04-23T18:03:44.097Z,17.50
2018-04-23T18:06:11.623Z,17.40
2018-04-23T18:08:39.250Z,17.30
2018-04-23T18:11:07.682Z,17.40
2018-04-23T18:13:35.220Z,17.40
2018-04-23T18:16:02.795Z,17.50
2018-04-23T18:18:30.426Z,17.50
2018-04-23T18:20:58.815Z,17.40
2018-04-23T18:23:27.195Z,17.30
2018-04-23T18:25:54.780Z,17.30
2018-04-23T18:28:22.464Z,17.30
2018-04-23T18:30:50.024Z,17.30
2018-04-23T18:33:17.651Z,17.20
2018-04-23T18:35:45.675Z,17.20
2018-04-23T18:38:13.536Z,17.20
2018-04-23T18:40:41.338Z,17.20
2018-04-23T18:43:08.991Z,17.20
2018-04-23T18:45:36.775Z,17.00
2018-04-23T18:48:04.561Z,16.90
2018-04-23T18:50:32.191Z,16.90
2018-04-23T18:53:00.082Z,16.90
2018-04-23T18:55:28.185Z,16.90
2018-04-23T18:57:56.345Z,16.90
2018-04-23T19:00:24.500Z,16.90
2018-04-23T19:02:52.340Z,16.90
2018-04-23T19:05:21.234Z,16.80
2018-04-23T19:07:49.154Z,16.80
2018-04-23T19:10:16.854Z,16.80
2018-04-23T19:12:46.327Z,16.70
2018-04-23T19:15:14.233Z,16.80
2018-04-23T19:17:42.474Z,16.70
2018-04-23T19:20:10.325Z,16.60
2018-04-23T19:22:38.227Z,16.60
2018-04-23T19:25:06.197Z,16.40
2018-04-23T19:27:33.931Z,16.40
2018-04-23T19:30:02.223Z,16.30
2018-04-23T19:32:32.684Z,16.30
2018-04-23T19:35:01.894Z,16.20
2018-04-23T19:37:29.557Z,16.20
2018-04-23T19:39:57.732Z,16.20
2018-04-23T19:42:26.374Z,16.00
2018-04-23T19:44:54.505Z,16.00
2018-04-23T19:47:22.952Z,15.90
2018-04-23T19:49:50.886Z,15.80
2018-04-23T19:52:19.419Z,15.70
2018-04-23T19:54:47.101Z,15.70
2018-04-23T19:57:14.725Z,15.60
2018-04-23T19:59:42.649Z,15.70
2018-04-23T20:02:10.233Z,15.80
2018-04-23T20:04:37.855Z,15.90
2018-04-23T20:07:06.335Z,16.00
2018-04-23T20:09:33.981Z,16.00
2018-04-23T20:12:01.611Z,16.10
2018-04-23T20:14:30.090Z,16.10
2018-04-23T20:16:57.718Z,16.10
2018-04-23T20:19:25.323Z,16.20
2018-04-23T20:21:52.935Z,16.20
2018-04-23T20:24:20.482Z,16.30
2018-04-23T20:26:48.776Z,16.30
2018-04-23T20:29:17.735Z,16.20
2018-04-23T20:31:45.356Z,16.20
2018-04-23T20:34:12.935Z,16.20
2018-04-23T20:36:40.509Z,16.10
2018-04-23T20:39:08.095Z,16.00
2018-04-23T20:41:35.673Z,16.00
2018-04-23T20:44:04.023Z,15.90
2018-04-23T20:46:31.574Z,15.90
2018-04-23T20:48:59.083Z,16.00
2018-04-23T20:51:26.617Z,15.90
2018-04-23T20:53:54.160Z,15.90
2018-04-23T20:56:21.732Z,15.80
2018-04-23T20:58:49.255Z,15.80
2018-04-23T21:01:17.672Z,15.80
2018-04-23T21:03:45.215Z,15.80
2018-04-23T21:06:13.537Z,15.60
2018-04-23T21:08:41.058Z,15.60
2018-04-23T21:11:09.351Z,15.50
2018-04-23T21:13:36.909Z,15.50
2018-04-23T21:16:04.493Z,15.50
2018-04-23T21:18:32.053Z,15.40
2018-04-23T21:20:59.571Z,15.30
2018-04-23T21:23:27.150Z,15.40
2018-04-23T21:25:55.447Z,15.30
2018-04-23T21:28:23.028Z,15.30
2018-04-23T21:30:50.556Z,15.30
2018-04-23T21:33:18.948Z,15.30
2018-04-23T21:35:47.240Z,15.30
2018-04-23T21:38:15.541Z,15.40
2018-04-23T21:40:43.063Z,15.30
2018-04-23T21:43:10.592Z,15.40
2018-04-23T21:45:38.112Z,15.30
2018-04-23T21:48:06.392Z,15.30
2018-04-23T21:50:34.702Z,15.30
2018-04-23T21:53:02.249Z,15.30
2018-04-23T21:55:29.820Z,15.30
2018-04-23T21:57:57.355Z,15.30
2018-04-23T22:00:25.623Z,15.20
2018-04-23T22:02:53.169Z,15.20
2018-04-23T22:05:20.731Z,15.20
2018-04-23T22:07:48.232Z,15.20
2018-04-23T22:10:16.510Z,15.10
2018-04-23T22:12:44.808Z,15.10
2018-04-23T22:15:12.404Z,15.10
2018-04-23T22:17:39.912Z,15.10
2018-04-23T22:20:08.205Z,14.90
2018-04-23T22:22:36.493Z,14.90
2018-04-23T22:25:04.787Z,14.90
2018-04-23T22:27:32.313Z,14.90
2018-04-23T22:29:59.840Z,14.90
2018-04-23T22:32:27.373Z,14.90
2018-04-23T22:34:54.894Z,14.90
2018-04-23T22:37:22.424Z,14.90
2018-04-23T22:39:49.941Z,14.80
2018-04-23T22:42:18.215Z,14.70
2018-04-23T22:44:46.529Z,14.70
2018-04-23T22:47:14.037Z,14.70
2018-04-23T22:49:41.566Z,14.70
2018-04-23T22:52:09.082Z,14.80
2018-04-23T22:54:36.608Z,14.70
2018-04-23T22:57:04.117Z,14.70
2018-04-23T22:59:32.412Z,14.60
2018-04-23T23:02:00.695Z,14.60
2018-04-23T23:04:28.975Z,14.60
2018-04-23T23:06:57.271Z,14.60
2018-04-23T23:09:24.798Z,14.60
2018-04-23T23:11:53.839Z,14.60
2018-04-23T23:14:21.339Z,14.60
2018-04-23T23:16:48.868Z,14.60
2018-04-23T23:19:16.391Z,14.50
2018-04-23T23:21:44.703Z,14.60
2018-04-23T23:24:12.222Z,14.60
2018-04-23T23:26:40.519Z,14.40
2018-04-23T23:29:08.042Z,14.40
2018-04-23T23:31:35.550Z,14.40
2018-04-23T23:34:03.846Z,14.20
2018-04-23T23:36:32.136Z,14.20
2018-04-23T23:38:59.669Z,14.10
2018-04-23T23:41:27.185Z,14.10
2018-04-23T23:43:54.727Z,13.90
2018-04-23T23:46:22.997Z,13.90
2018-04-23T23:48:51.279Z,14.00
2018-04-23T23:51:19.566Z,13.90
2018-04-23T23:53:47.147Z,13.90
2018-04-23T23:56:14.675Z,13.80
2018-04-23T23:58:43.005Z,13.90
